sensor_id;sensor_type;location;lat;lon;timestamp;temperature;humidity
22069;DHT22;13887;57.196;-2.100;2022-08-19T00:01:41;15.71;80.06
22069;DHT22;13887;57.196;-2.100;2022-08-19T00:04:10;15.68;80.12
22069;DHT22;13887;57.196;-2.100;2022-08-19T00:06:39;15.68;80.13
22069;DHT22;13887;57.196;-2.100;2022-08-19T00:09:09;15.66;80.11
22069;DHT22;13887;57.196;-2.100;2022-08-19T00:11:37;15.66;79.94
22069;DHT22;13887;57.196;-2.100;2022-08-19T00:14:06;15.63;79.90
22069;DHT22;13887;57.196;-2.100;2022-08-19T00:16:36;15.62;79.78
22069;DHT22;13887;57.196;-2.100;2022-08-19T00:19:03;15.61;79.66
22069;DHT22;13887;57.196;-2.100;2022-08-19T00:21:30;15.60;79.36
22069;DHT22;13887;57.196;-2.100;2022-08-19T00:23:58;15.59;79.47
22069;DHT22;13887;57.196;-2.100;2022-08-19T00:26:27;15.56;79.27
22069;DHT22;13887;57.196;-2.100;2022-08-19T00:28:55;15.58;79.05
22069;DHT22;13887;57.196;-2.100;2022-08-19T00:31:22;15.55;79.08
22069;DHT22;13887;57.196;-2.100;2022-08-19T00:33:49;15.53;78.94
22069;DHT22;13887;57.196;-2.100;2022-08-19T00:36:17;15.52;78.73
22069;DHT22;13887;57.196;-2.100;2022-08-19T00:38:44;15.49;78.68
22069;DHT22;13887;57.196;-2.100;2022-08-19T00:41:16;15.52;78.17
22069;DHT22;13887;57.196;-2.100;2022-08-19T00:46:49;15.47;78.15
22069;DHT22;13887;57.196;-2.100;2022-08-19T00:49:47;15.45;77.79
22069;DHT22;13887;57.196;-2.100;2022-08-19T00:52:27;15.44;77.61
22069;DHT22;13887;57.196;-2.100;2022-08-19T00:54:56;15.44;77.37
22069;DHT22;13887;57.196;-2.100;2022-08-19T00:57:30;15.41;77.26
22069;DHT22;13887;57.196;-2.100;2022-08-19T00:59:59;15.40;76.85
22069;DHT22;13887;57.196;-2.100;2022-08-19T01:02:30;15.40;76.79
22069;DHT22;13887;57.196;-2.100;2022-08-19T01:05:00;15.39;76.70
22069;DHT22;13887;57.196;-2.100;2022-08-19T01:07:27;15.38;76.46
22069;DHT22;13887;57.196;-2.100;2022-08-19T01:10:06;15.39;76.39
22069;DHT22;13887;57.196;-2.100;2022-08-19T01:12:34;15.36;76.34
22069;DHT22;13887;57.196;-2.100;2022-08-19T01:15:02;15.34;75.98
22069;DHT22;13887;57.196;-2.100;2022-08-19T01:17:29;15.32;75.99
22069;DHT22;13887;57.196;-2.100;2022-08-19T01:19:56;15.32;75.92
22069;DHT22;13887;57.196;-2.100;2022-08-19T01:24:59;15.31;75.54
22069;DHT22;13887;57.196;-2.100;2022-08-19T01:27:26;15.28;75.50
22069;DHT22;13887;57.196;-2.100;2022-08-19T01:30:09;15.26;75.62
22069;DHT22;13887;57.196;-2.100;2022-08-19T01:32:36;15.24;75.18
22069;DHT22;13887;57.196;-2.100;2022-08-19T01:35:04;15.24;75.21
22069;DHT22;13887;57.196;-2.100;2022-08-19T01:37:46;15.24;75.38
22069;DHT22;13887;57.196;-2.100;2022-08-19T01:40:15;15.24;75.41
22069;DHT22;13887;57.196;-2.100;2022-08-19T01:42:42;15.22;75.17
22069;DHT22;13887;57.196;-2.100;2022-08-19T01:45:10;15.22;74.82
22069;DHT22;13887;57.196;-2.100;2022-08-19T01:47:37;15.22;74.75
22069;DHT22;13887;57.196;-2.100;2022-08-19T01:50:06;15.19;75.15
22069;DHT22;13887;57.196;-2.100;2022-08-19T01:52:35;15.18;75.12
22069;DHT22;13887;57.196;-2.100;2022-08-19T01:55:06;15.15;74.55
22069;DHT22;13887;57.196;-2.100;2022-08-19T01:57:35;15.16;74.03
22069;DHT22;13887;57.196;-2.100;2022-08-19T02:00:06;15.15;74.51
22069;DHT22;13887;57.196;-2.100;2022-08-19T02:02:37;15.14;74.59
22069;DHT22;13887;57.196;-2.100;2022-08-19T02:05:06;15.13;73.88
22069;DHT22;13887;57.196;-2.100;2022-08-19T02:07:38;15.11;73.96
22069;DHT22;13887;57.196;-2.100;2022-08-19T02:10:10;15.11;74.14
22069;DHT22;13887;57.196;-2.100;2022-08-19T02:12:42;15.08;74.25
22069;DHT22;13887;57.196;-2.100;2022-08-19T02:15:09;15.09;74.57
22069;DHT22;13887;57.196;-2.100;2022-08-19T02:17:36;15.06;74.63
22069;DHT22;13887;57.196;-2.100;2022-08-19T02:20:04;15.04;74.38
22069;DHT22;13887;57.196;-2.100;2022-08-19T02:22:33;15.06;74.15
22069;DHT22;13887;57.196;-2.100;2022-08-19T02:25:00;15.03;74.47
22069;DHT22;13887;57.196;-2.100;2022-08-19T02:27:27;15.03;74.20
22069;DHT22;13887;57.196;-2.100;2022-08-19T02:29:56;15.00;74.39
22069;DHT22;13887;57.196;-2.100;2022-08-19T02:32:23;15.00;74.47
22069;DHT22;13887;57.196;-2.100;2022-08-19T02:34:50;14.99;74.31
22069;DHT22;13887;57.196;-2.100;2022-08-19T02:37:17;15.00;73.85
22069;DHT22;13887;57.196;-2.100;2022-08-19T02:40:02;14.98;74.12
22069;DHT22;13887;57.196;-2.100;2022-08-19T02:42:38;14.98;73.95
22069;DHT22;13887;57.196;-2.100;2022-08-19T02:45:07;14.94;74.03
22069;DHT22;13887;57.196;-2.100;2022-08-19T02:47:34;14.92;73.93
22069;DHT22;13887;57.196;-2.100;2022-08-19T02:50:03;14.96;73.71
22069;DHT22;13887;57.196;-2.100;2022-08-19T02:52:32;14.93;73.90
22069;DHT22;13887;57.196;-2.100;2022-08-19T02:54:59;14.92;73.81
22069;DHT22;13887;57.196;-2.100;2022-08-19T02:57:27;14.93;73.64
22069;DHT22;13887;57.196;-2.100;2022-08-19T02:59:58;14.91;73.61
22069;DHT22;13887;57.196;-2.100;2022-08-19T03:02:25;14.87;73.64
22069;DHT22;13887;57.196;-2.100;2022-08-19T03:04:52;14.84;73.78
22069;DHT22;13887;57.196;-2.100;2022-08-19T03:07:19;14.87;73.57
22069;DHT22;13887;57.196;-2.100;2022-08-19T03:09:46;14.84;73.77
22069;DHT22;13887;57.196;-2.100;2022-08-19T03:12:13;14.83;73.64
22069;DHT22;13887;57.196;-2.100;2022-08-19T03:14:40;14.81;73.67
22069;DHT22;13887;57.196;-2.100;2022-08-19T03:17:07;14.81;73.65
22069;DHT22;13887;57.196;-2.100;2022-08-19T03:19:34;14.81;73.67
22069;DHT22;13887;57.196;-2.100;2022-08-19T03:22:01;14.79;73.61
22069;DHT22;13887;57.196;-2.100;2022-08-19T03:24:29;14.81;73.50
22069;DHT22;13887;57.196;-2.100;2022-08-19T03:26:57;14.81;73.44
22069;DHT22;13887;57.196;-2.100;2022-08-19T03:29:28;14.82;73.42
22069;DHT22;13887;57.196;-2.100;2022-08-19T03:32:03;14.80;73.56
22069;DHT22;13887;57.196;-2.100;2022-08-19T03:34:32;14.78;73.57
22069;DHT22;13887;57.196;-2.100;2022-08-19T03:37:07;14.77;73.57
22069;DHT22;13887;57.196;-2.100;2022-08-19T03:39:37;14.78;73.49
22069;DHT22;13887;57.196;-2.100;2022-08-19T03:42:04;14.77;73.51
22069;DHT22;13887;57.196;-2.100;2022-08-19T03:44:52;14.74;73.55
22069;DHT22;13887;57.196;-2.100;2022-08-19T03:47:19;14.74;73.73
22069;DHT22;13887;57.196;-2.100;2022-08-19T03:49:46;14.74;73.63
22069;DHT22;13887;57.196;-2.100;2022-08-19T03:52:12;14.73;73.54
22069;DHT22;13887;57.196;-2.100;2022-08-19T03:54:41;14.73;73.64
22069;DHT22;13887;57.196;-2.100;2022-08-19T03:57:08;14.70;73.73
22069;DHT22;13887;57.196;-2.100;2022-08-19T03:59:36;14.68;73.75
22069;DHT22;13887;57.196;-2.100;2022-08-19T04:02:08;14.69;73.54
22069;DHT22;13887;57.196;-2.100;2022-08-19T04:04:40;14.65;73.66
22069;DHT22;13887;57.196;-2.100;2022-08-19T04:07:09;14.66;73.52
22069;DHT22;13887;57.196;-2.100;2022-08-19T04:09:36;14.67;73.55
22069;DHT22;13887;57.196;-2.100;2022-08-19T04:12:04;14.65;73.46
22069;DHT22;13887;57.196;-2.100;2022-08-19T04:14:32;14.66;73.37
22069;DHT22;13887;57.196;-2.100;2022-08-19T04:17:01;14.64;73.51
22069;DHT22;13887;57.196;-2.100;2022-08-19T04:19:33;14.66;73.41
22069;DHT22;13887;57.196;-2.100;2022-08-19T04:22:00;14.62;73.46
22069;DHT22;13887;57.196;-2.100;2022-08-19T04:24:28;14.62;73.41
22069;DHT22;13887;57.196;-2.100;2022-08-19T04:26:54;14.63;73.35
22069;DHT22;13887;57.196;-2.100;2022-08-19T04:29:24;14.63;73.35
22069;DHT22;13887;57.196;-2.100;2022-08-19T04:31:54;14.63;73.32
22069;DHT22;13887;57.196;-2.100;2022-08-19T04:34:24;14.56;73.42
22069;DHT22;13887;57.196;-2.100;2022-08-19T04:36:53;14.57;73.38
22069;DHT22;13887;57.196;-2.100;2022-08-19T04:39:23;14.58;73.16
22069;DHT22;13887;57.196;-2.100;2022-08-19T04:42:10;14.59;73.28
22069;DHT22;13887;57.196;-2.100;2022-08-19T04:44:57;14.55;73.28
22069;DHT22;13887;57.196;-2.100;2022-08-19T04:47:25;14.56;73.19
22069;DHT22;13887;57.196;-2.100;2022-08-19T04:50:13;14.54;73.28
22069;DHT22;13887;57.196;-2.100;2022-08-19T04:52:44;14.54;73.35
22069;DHT22;13887;57.196;-2.100;2022-08-19T04:55:11;14.52;73.36
22069;DHT22;13887;57.196;-2.100;2022-08-19T04:57:39;14.51;73.48
22069;DHT22;13887;57.196;-2.100;2022-08-19T05:00:09;14.51;73.47
22069;DHT22;13887;57.196;-2.100;2022-08-19T05:02:37;14.49;73.57
22069;DHT22;13887;57.196;-2.100;2022-08-19T05:05:04;14.47;73.71
22069;DHT22;13887;57.196;-2.100;2022-08-19T05:07:33;14.45;73.75
22069;DHT22;13887;57.196;-2.100;2022-08-19T05:10:00;14.44;73.83
22069;DHT22;13887;57.196;-2.100;2022-08-19T05:12:27;14.47;73.80
22069;DHT22;13887;57.196;-2.100;2022-08-19T05:14:56;14.48;73.80
22069;DHT22;13887;57.196;-2.100;2022-08-19T05:17:27;14.50;73.83
22069;DHT22;13887;57.196;-2.100;2022-08-19T05:20:03;14.48;73.86
22069;DHT22;13887;57.196;-2.100;2022-08-19T05:22:49;14.51;73.80
22069;DHT22;13887;57.196;-2.100;2022-08-19T05:25:18;14.53;73.70
22069;DHT22;13887;57.196;-2.100;2022-08-19T05:27:46;14.52;73.84
22069;DHT22;13887;57.196;-2.100;2022-08-19T05:30:14;14.53;73.78
22069;DHT22;13887;57.196;-2.100;2022-08-19T05:32:42;14.52;73.86
22069;DHT22;13887;57.196;-2.100;2022-08-19T05:35:09;14.55;73.70
22069;DHT22;13887;57.196;-2.100;2022-08-19T05:37:38;14.59;73.67
22069;DHT22;13887;57.196;-2.100;2022-08-19T05:40:08;14.55;73.76
22069;DHT22;13887;57.196;-2.100;2022-08-19T05:42:35;14.56;73.82
22069;DHT22;13887;57.196;-2.100;2022-08-19T05:45:03;14.60;73.62
22069;DHT22;13887;57.196;-2.100;2022-08-19T05:47:31;14.60;73.64
22069;DHT22;13887;57.196;-2.100;2022-08-19T05:49:59;14.62;73.63
22069;DHT22;13887;57.196;-2.100;2022-08-19T05:52:25;14.59;73.66
22069;DHT22;13887;57.196;-2.100;2022-08-19T05:54:53;14.57;73.86
22069;DHT22;13887;57.196;-2.100;2022-08-19T05:57:23;14.63;73.67
22069;DHT22;13887;57.196;-2.100;2022-08-19T05:59:51;14.62;73.72
22069;DHT22;13887;57.196;-2.100;2022-08-19T06:02:25;14.60;73.79
22069;DHT22;13887;57.196;-2.100;2022-08-19T06:04:53;14.62;73.78
22069;DHT22;13887;57.196;-2.100;2022-08-19T06:07:19;14.63;73.73
22069;DHT22;13887;57.196;-2.100;2022-08-19T06:09:46;14.62;73.81
22069;DHT22;13887;57.196;-2.100;2022-08-19T06:12:25;14.64;73.74
22069;DHT22;13887;57.196;-2.100;2022-08-19T06:14:55;14.63;73.77
22069;DHT22;13887;57.196;-2.100;2022-08-19T06:17:27;14.58;73.92
22069;DHT22;13887;57.196;-2.100;2022-08-19T06:19:56;14.62;73.80
22069;DHT22;13887;57.196;-2.100;2022-08-19T06:22:23;14.63;73.86
22069;DHT22;13887;57.196;-2.100;2022-08-19T06:24:50;14.60;73.93
22069;DHT22;13887;57.196;-2.100;2022-08-19T06:27:20;14.59;73.94
22069;DHT22;13887;57.196;-2.100;2022-08-19T06:29:47;14.60;73.99
22069;DHT22;13887;57.196;-2.100;2022-08-19T06:32:15;14.60;73.99
22069;DHT22;13887;57.196;-2.100;2022-08-19T06:34:43;14.65;73.85
22069;DHT22;13887;57.196;-2.100;2022-08-19T06:37:10;14.62;74.04
22069;DHT22;13887;57.196;-2.100;2022-08-19T06:39:39;14.63;73.97
22069;DHT22;13887;57.196;-2.100;2022-08-19T06:42:07;14.65;73.86
22069;DHT22;13887;57.196;-2.100;2022-08-19T06:44:39;14.65;73.86
22069;DHT22;13887;57.196;-2.100;2022-08-19T06:47:11;14.64;73.92
22069;DHT22;13887;57.196;-2.100;2022-08-19T06:49:41;14.63;74.04
22069;DHT22;13887;57.196;-2.100;2022-08-19T06:52:10;14.65;73.99
22069;DHT22;13887;57.196;-2.100;2022-08-19T06:54:41;14.66;73.95
22069;DHT22;13887;57.196;-2.100;2022-08-19T06:57:25;14.65;74.01
22069;DHT22;13887;57.196;-2.100;2022-08-19T06:59:53;14.67;74.04
22069;DHT22;13887;57.196;-2.100;2022-08-19T07:02:23;14.70;73.96
22069;DHT22;13887;57.196;-2.100;2022-08-19T07:04:53;14.69;74.03
22069;DHT22;13887;57.196;-2.100;2022-08-19T07:07:21;14.68;73.99
22069;DHT22;13887;57.196;-2.100;2022-08-19T07:09:50;14.69;74.00
22069;DHT22;13887;57.196;-2.100;2022-08-19T07:12:28;14.69;74.03
22069;DHT22;13887;57.196;-2.100;2022-08-19T07:14:57;14.70;74.02
22069;DHT22;13887;57.196;-2.100;2022-08-19T07:17:25;14.71;73.98
22069;DHT22;13887;57.196;-2.100;2022-08-19T07:19:52;14.74;73.93
22069;DHT22;13887;57.196;-2.100;2022-08-19T07:22:21;14.71;74.06
22069;DHT22;13887;57.196;-2.100;2022-08-19T07:24:51;14.72;74.13
22069;DHT22;13887;57.196;-2.100;2022-08-19T07:27:18;14.74;74.12
22069;DHT22;13887;57.196;-2.100;2022-08-19T07:29:52;14.77;74.09
22069;DHT22;13887;57.196;-2.100;2022-08-19T07:32:22;14.73;74.22
22069;DHT22;13887;57.196;-2.100;2022-08-19T07:34:49;14.75;74.06
22069;DHT22;13887;57.196;-2.100;2022-08-19T07:37:16;14.75;73.99
22069;DHT22;13887;57.196;-2.100;2022-08-19T07:39:43;14.75;74.02
22069;DHT22;13887;57.196;-2.100;2022-08-19T07:42:10;14.79;73.91
22069;DHT22;13887;57.196;-2.100;2022-08-19T07:44:39;14.78;74.06
22069;DHT22;13887;57.196;-2.100;2022-08-19T07:47:12;14.81;73.97
22069;DHT22;13887;57.196;-2.100;2022-08-19T07:50:03;14.78;73.92
22069;DHT22;13887;57.196;-2.100;2022-08-19T07:52:33;14.79;73.89
22069;DHT22;13887;57.196;-2.100;2022-08-19T07:55:04;14.80;73.92
22069;DHT22;13887;57.196;-2.100;2022-08-19T07:57:31;14.80;73.90
22069;DHT22;13887;57.196;-2.100;2022-08-19T07:59:58;14.81;73.89
22069;DHT22;13887;57.196;-2.100;2022-08-19T08:02:26;14.79;73.94
22069;DHT22;13887;57.196;-2.100;2022-08-19T08:04:52;14.82;73.80
22069;DHT22;13887;57.196;-2.100;2022-08-19T08:07:39;14.83;73.83
22069;DHT22;13887;57.196;-2.100;2022-08-19T08:10:24;14.83;73.90
22069;DHT22;13887;57.196;-2.100;2022-08-19T08:12:52;14.84;73.80
22069;DHT22;13887;57.196;-2.100;2022-08-19T08:15:37;14.83;73.92
22069;DHT22;13887;57.196;-2.100;2022-08-19T08:18:10;14.84;73.90
22069;DHT22;13887;57.196;-2.100;2022-08-19T08:20:38;14.86;73.84
22069;DHT22;13887;57.196;-2.100;2022-08-19T08:23:05;14.91;73.84
22069;DHT22;13887;57.196;-2.100;2022-08-19T08:25:56;14.92;73.92
22069;DHT22;13887;57.196;-2.100;2022-08-19T08:28:24;14.91;73.99
22069;DHT22;13887;57.196;-2.100;2022-08-19T08:30:56;14.94;74.01
22069;DHT22;13887;57.196;-2.100;2022-08-19T08:33:25;14.94;73.96
22069;DHT22;13887;57.196;-2.100;2022-08-19T08:36:06;14.95;73.86
22069;DHT22;13887;57.196;-2.100;2022-08-19T08:38:35;14.95;73.86
22069;DHT22;13887;57.196;-2.100;2022-08-19T08:44:02;14.95;73.81
22069;DHT22;13887;57.196;-2.100;2022-08-19T08:46:39;14.99;73.86
22069;DHT22;13887;57.196;-2.100;2022-08-19T08:49:44;14.98;73.64
22069;DHT22;13887;57.196;-2.100;2022-08-19T08:52:28;14.98;73.76
22069;DHT22;13887;57.196;-2.100;2022-08-19T08:55:00;14.98;73.73
22069;DHT22;13887;57.196;-2.100;2022-08-19T09:02:47;15.02;73.54
22069;DHT22;13887;57.196;-2.100;2022-08-19T09:05:17;15.03;73.31
22069;DHT22;13887;57.196;-2.100;2022-08-19T09:10:56;15.06;73.49
22069;DHT22;13887;57.196;-2.100;2022-08-19T09:16:19;15.07;73.65
22069;DHT22;13887;57.196;-2.100;2022-08-19T09:19:01;15.10;73.64
22069;DHT22;13887;57.196;-2.100;2022-08-19T09:21:32;15.11;73.70
22069;DHT22;13887;57.196;-2.100;2022-08-19T09:24:01;15.11;73.90
22069;DHT22;13887;57.196;-2.100;2022-08-19T09:26:30;15.11;74.06
22069;DHT22;13887;57.196;-2.100;2022-08-19T09:29:18;15.11;73.89
22069;DHT22;13887;57.196;-2.100;2022-08-19T09:31:48;15.12;73.70
22069;DHT22;13887;57.196;-2.100;2022-08-19T09:34:16;15.13;73.61
22069;DHT22;13887;57.196;-2.100;2022-08-19T09:36:48;15.14;73.73
22069;DHT22;13887;57.196;-2.100;2022-08-19T09:39:20;15.18;73.51
22069;DHT22;13887;57.196;-2.100;2022-08-19T09:41:47;15.18;73.61
22069;DHT22;13887;57.196;-2.100;2022-08-19T09:44:17;15.19;73.74
22069;DHT22;13887;57.196;-2.100;2022-08-19T09:46:45;15.23;73.82
22069;DHT22;13887;57.196;-2.100;2022-08-19T09:49:15;15.22;73.69
22069;DHT22;13887;57.196;-2.100;2022-08-19T09:51:44;15.24;73.58
22069;DHT22;13887;57.196;-2.100;2022-08-19T09:54:17;15.24;73.61
22069;DHT22;13887;57.196;-2.100;2022-08-19T09:56:52;15.25;73.64
22069;DHT22;13887;57.196;-2.100;2022-08-19T09:59:20;15.26;73.64
22069;DHT22;13887;57.196;-2.100;2022-08-19T10:01:47;15.27;73.64
22069;DHT22;13887;57.196;-2.100;2022-08-19T10:04:15;15.28;73.67
22069;DHT22;13887;57.196;-2.100;2022-08-19T10:06:49;15.30;73.61
22069;DHT22;13887;57.196;-2.100;2022-08-19T10:09:19;15.31;73.57
22069;DHT22;13887;57.196;-2.100;2022-08-19T10:12:01;15.33;73.30
22069;DHT22;13887;57.196;-2.100;2022-08-19T10:14:29;15.36;73.35
22069;DHT22;13887;57.196;-2.100;2022-08-19T10:16:57;15.41;73.28
22069;DHT22;13887;57.196;-2.100;2022-08-19T10:19:25;15.41;73.30
22069;DHT22;13887;57.196;-2.100;2022-08-19T10:21:53;15.43;73.07
22069;DHT22;13887;57.196;-2.100;2022-08-19T10:24:26;15.47;73.09
22069;DHT22;13887;57.196;-2.100;2022-08-19T10:26:55;15.48;73.12
22069;DHT22;13887;57.196;-2.100;2022-08-19T10:29:25;15.51;73.15
22069;DHT22;13887;57.196;-2.100;2022-08-19T10:32:00;15.51;73.12
22069;DHT22;13887;57.196;-2.100;2022-08-19T10:34:30;15.49;73.18
22069;DHT22;13887;57.196;-2.100;2022-08-19T10:36:57;15.49;73.14
22069;DHT22;13887;57.196;-2.100;2022-08-19T10:39:28;15.52;73.08
22069;DHT22;13887;57.196;-2.100;2022-08-19T10:41:59;15.55;73.03
22069;DHT22;13887;57.196;-2.100;2022-08-19T10:44:26;15.57;72.61
22069;DHT22;13887;57.196;-2.100;2022-08-19T10:46:58;15.56;72.80
22069;DHT22;13887;57.196;-2.100;2022-08-19T10:49:26;15.58;72.86
22069;DHT22;13887;57.196;-2.100;2022-08-19T10:51:54;15.57;72.51
22069;DHT22;13887;57.196;-2.100;2022-08-19T10:54:45;15.58;72.53
22069;DHT22;13887;57.196;-2.100;2022-08-19T10:57:34;15.59;72.79
22069;DHT22;13887;57.196;-2.100;2022-08-19T11:00:22;15.60;72.86
22069;DHT22;13887;57.196;-2.100;2022-08-19T11:02:50;15.59;72.43
22069;DHT22;13887;57.196;-2.100;2022-08-19T11:05:18;15.61;72.93
22069;DHT22;13887;57.196;-2.100;2022-08-19T11:07:45;15.63;72.72
22069;DHT22;13887;57.196;-2.100;2022-08-19T11:10:13;15.65;72.64
22069;DHT22;13887;57.196;-2.100;2022-08-19T11:12:47;15.67;71.86
22069;DHT22;13887;57.196;-2.100;2022-08-19T11:15:15;15.66;72.33
22069;DHT22;13887;57.196;-2.100;2022-08-19T11:17:42;15.68;72.85
22069;DHT22;13887;57.196;-2.100;2022-08-19T11:20:14;15.66;72.91
22069;DHT22;13887;57.196;-2.100;2022-08-19T11:22:41;15.68;73.31
22069;DHT22;13887;57.196;-2.100;2022-08-19T11:25:10;15.70;73.37
22069;DHT22;13887;57.196;-2.100;2022-08-19T11:27:39;15.72;73.27
22069;DHT22;13887;57.196;-2.100;2022-08-19T11:30:10;15.73;72.76
22069;DHT22;13887;57.196;-2.100;2022-08-19T11:32:40;15.76;72.82
22069;DHT22;13887;57.196;-2.100;2022-08-19T11:35:14;15.78;72.51
22069;DHT22;13887;57.196;-2.100;2022-08-19T11:37:42;15.80;72.90
22069;DHT22;13887;57.196;-2.100;2022-08-19T11:40:09;15.80;73.15
22069;DHT22;13887;57.196;-2.100;2022-08-19T11:42:36;15.82;73.27
22069;DHT22;13887;57.196;-2.100;2022-08-19T11:45:27;15.85;72.95
22069;DHT22;13887;57.196;-2.100;2022-08-19T11:47:55;15.86;73.10
22069;DHT22;13887;57.196;-2.100;2022-08-19T11:50:23;15.88;73.03
22069;DHT22;13887;57.196;-2.100;2022-08-19T11:52:53;15.89;73.35
22069;DHT22;13887;57.196;-2.100;2022-08-19T11:55:21;15.91;73.19
22069;DHT22;13887;57.196;-2.100;2022-08-19T11:57:48;15.90;73.27
22069;DHT22;13887;57.196;-2.100;2022-08-19T12:00:17;15.92;72.63
22069;DHT22;13887;57.196;-2.100;2022-08-19T12:02:44;15.92;73.33
22069;DHT22;13887;57.196;-2.100;2022-08-19T12:05:11;15.91;73.00
22069;DHT22;13887;57.196;-2.100;2022-08-19T12:07:39;15.93;72.34
22069;DHT22;13887;57.196;-2.100;2022-08-19T12:10:10;15.95;73.06
22069;DHT22;13887;57.196;-2.100;2022-08-19T12:12:37;15.95;72.21
22069;DHT22;13887;57.196;-2.100;2022-08-19T12:15:11;16.00;71.92
22069;DHT22;13887;57.196;-2.100;2022-08-19T12:17:38;16.02;72.56
22069;DHT22;13887;57.196;-2.100;2022-08-19T12:20:06;16.05;72.82
22069;DHT22;13887;57.196;-2.100;2022-08-19T12:22:36;16.08;73.07
22069;DHT22;13887;57.196;-2.100;2022-08-19T12:25:04;16.16;74.31
22069;DHT22;13887;57.196;-2.100;2022-08-19T12:27:32;16.21;73.29
22069;DHT22;13887;57.196;-2.100;2022-08-19T12:30:10;16.25;74.15
22069;DHT22;13887;57.196;-2.100;2022-08-19T12:32:37;16.25;73.97
22069;DHT22;13887;57.196;-2.100;2022-08-19T12:35:06;16.26;73.47
22069;DHT22;13887;57.196;-2.100;2022-08-19T12:37:33;16.28;73.25
22069;DHT22;13887;57.196;-2.100;2022-08-19T12:40:00;16.30;72.77
22069;DHT22;13887;57.196;-2.100;2022-08-19T12:42:28;16.31;72.93
22069;DHT22;13887;57.196;-2.100;2022-08-19T12:44:56;16.33;73.65
22069;DHT22;13887;57.196;-2.100;2022-08-19T12:47:24;16.33;72.74
22069;DHT22;13887;57.196;-2.100;2022-08-19T12:49:53;16.33;73.26
22069;DHT22;13887;57.196;-2.100;2022-08-19T12:52:26;16.33;72.23
22069;DHT22;13887;57.196;-2.100;2022-08-19T12:54:55;16.35;73.15
22069;DHT22;13887;57.196;-2.100;2022-08-19T12:57:26;16.35;73.18
22069;DHT22;13887;57.196;-2.100;2022-08-19T13:00:06;16.40;73.34
22069;DHT22;13887;57.196;-2.100;2022-08-19T13:02:42;16.44;73.76
22069;DHT22;13887;57.196;-2.100;2022-08-19T13:05:14;16.46;73.76
22069;DHT22;13887;57.196;-2.100;2022-08-19T13:07:42;16.47;73.06
22069;DHT22;13887;57.196;-2.100;2022-08-19T13:10:14;16.50;71.56
22069;DHT22;13887;57.196;-2.100;2022-08-19T13:12:43;16.52;72.74
22069;DHT22;13887;57.196;-2.100;2022-08-19T13:15:11;16.54;72.60
22069;DHT22;13887;57.196;-2.100;2022-08-19T13:17:41;16.49;71.92
22069;DHT22;13887;57.196;-2.100;2022-08-19T13:20:09;16.49;71.93
22069;DHT22;13887;57.196;-2.100;2022-08-19T13:22:38;16.50;72.18
22069;DHT22;13887;57.196;-2.100;2022-08-19T13:25:06;16.52;71.64
22069;DHT22;13887;57.196;-2.100;2022-08-19T13:27:33;16.56;72.14
22069;DHT22;13887;57.196;-2.100;2022-08-19T13:30:01;16.59;71.55
22069;DHT22;13887;57.196;-2.100;2022-08-19T13:32:47;16.62;72.04
22069;DHT22;13887;57.196;-2.100;2022-08-19T13:35:32;16.67;71.72
22069;DHT22;13887;57.196;-2.100;2022-08-19T13:37:59;16.75;70.90
22069;DHT22;13887;57.196;-2.100;2022-08-19T13:40:27;16.78;70.44
22069;DHT22;13887;57.196;-2.100;2022-08-19T13:43:03;16.82;71.26
22069;DHT22;13887;57.196;-2.100;2022-08-19T13:45:53;16.85;72.93
22069;DHT22;13887;57.196;-2.100;2022-08-19T13:48:24;16.86;71.59
22069;DHT22;13887;57.196;-2.100;2022-08-19T13:50:51;16.88;70.36
22069;DHT22;13887;57.196;-2.100;2022-08-19T13:53:18;16.90;70.58
22069;DHT22;13887;57.196;-2.100;2022-08-19T13:55:45;16.90;72.06
22069;DHT22;13887;57.196;-2.100;2022-08-19T13:58:13;16.87;71.60
22069;DHT22;13887;57.196;-2.100;2022-08-19T14:00:45;16.87;72.11
22069;DHT22;13887;57.196;-2.100;2022-08-19T14:03:13;16.84;71.45
22069;DHT22;13887;57.196;-2.100;2022-08-19T14:05:41;16.82;71.43
22069;DHT22;13887;57.196;-2.100;2022-08-19T14:08:08;16.86;69.88
22069;DHT22;13887;57.196;-2.100;2022-08-19T14:10:36;16.88;69.72
22069;DHT22;13887;57.196;-2.100;2022-08-19T14:13:03;16.87;69.48
22069;DHT22;13887;57.196;-2.100;2022-08-19T14:15:31;16.89;71.49
22069;DHT22;13887;57.196;-2.100;2022-08-19T14:17:58;16.90;70.64
22069;DHT22;13887;57.196;-2.100;2022-08-19T14:20:25;16.89;71.10
22069;DHT22;13887;57.196;-2.100;2022-08-19T14:22:53;16.90;71.62
22069;DHT22;13887;57.196;-2.100;2022-08-19T14:25:25;16.93;71.02
22069;DHT22;13887;57.196;-2.100;2022-08-19T14:27:52;16.95;70.90
22069;DHT22;13887;57.196;-2.100;2022-08-19T14:30:22;16.98;72.69
22069;DHT22;13887;57.196;-2.100;2022-08-19T14:32:49;16.96;71.57
22069;DHT22;13887;57.196;-2.100;2022-08-19T14:35:16;16.98;71.26
22069;DHT22;13887;57.196;-2.100;2022-08-19T14:37:45;16.94;70.01
22069;DHT22;13887;57.196;-2.100;2022-08-19T14:40:15;16.96;71.56
22069;DHT22;13887;57.196;-2.100;2022-08-19T14:42:43;16.98;72.58
22069;DHT22;13887;57.196;-2.100;2022-08-19T14:45:11;16.95;71.33
22069;DHT22;13887;57.196;-2.100;2022-08-19T14:47:38;16.96;71.16
22069;DHT22;13887;57.196;-2.100;2022-08-19T14:50:10;16.99;71.45
22069;DHT22;13887;57.196;-2.100;2022-08-19T14:52:48;17.03;70.68
22069;DHT22;13887;57.196;-2.100;2022-08-19T14:55:16;17.05;73.18
22069;DHT22;13887;57.196;-2.100;2022-08-19T14:57:44;17.07;74.07
22069;DHT22;13887;57.196;-2.100;2022-08-19T15:00:12;17.05;71.67
22069;DHT22;13887;57.196;-2.100;2022-08-19T15:02:42;17.05;71.50
22069;DHT22;13887;57.196;-2.100;2022-08-19T15:05:12;17.06;71.46
22069;DHT22;13887;57.196;-2.100;2022-08-19T15:07:40;17.04;71.22
22069;DHT22;13887;57.196;-2.100;2022-08-19T15:10:09;17.06;71.34
22069;DHT22;13887;57.196;-2.100;2022-08-19T15:12:38;17.04;71.04
22069;DHT22;13887;57.196;-2.100;2022-08-19T15:15:13;17.01;70.79
22069;DHT22;13887;57.196;-2.100;2022-08-19T15:17:42;17.01;71.96
22069;DHT22;13887;57.196;-2.100;2022-08-19T15:20:14;17.00;72.54
22069;DHT22;13887;57.196;-2.100;2022-08-19T15:22:41;17.01;72.07
22069;DHT22;13887;57.196;-2.100;2022-08-19T15:25:10;16.99;71.36
22069;DHT22;13887;57.196;-2.100;2022-08-19T15:27:38;17.03;71.06
22069;DHT22;13887;57.196;-2.100;2022-08-19T15:30:07;17.02;70.52
22069;DHT22;13887;57.196;-2.100;2022-08-19T15:32:35;17.04;71.66
22069;DHT22;13887;57.196;-2.100;2022-08-19T15:35:04;17.05;71.10
22069;DHT22;13887;57.196;-2.100;2022-08-19T15:37:32;17.03;70.68
22069;DHT22;13887;57.196;-2.100;2022-08-19T15:40:04;17.05;69.56
22069;DHT22;13887;57.196;-2.100;2022-08-19T15:42:32;17.05;70.07
22069;DHT22;13887;57.196;-2.100;2022-08-19T15:45:01;17.05;70.17
22069;DHT22;13887;57.196;-2.100;2022-08-19T15:47:29;17.07;69.68
22069;DHT22;13887;57.196;-2.100;2022-08-19T15:50:11;17.07;70.03
22069;DHT22;13887;57.196;-2.100;2022-08-19T15:52:57;17.07;69.83
22069;DHT22;13887;57.196;-2.100;2022-08-19T15:55:30;17.08;70.28